Time;durP1;ratioP1;P1;durP2;ratioP2;P2;SDS_P1;SDS_P2;PMS_P1;PMS_P2;Temp;Humidity;BMP_temperature;BMP_pressure;BME280_temperature;BME280_humidity;BME280_pressure;Samples;Min_cycle;Max_cycle;Signal;HPM_P1;HPM_P2
2021/08/30 00:01:15;;;;;;;3.85;3.45;;;;;;;16.02;96.75;100333.78;6217063;23;20119;-81
2021/08/30 00:03:42;;;;;;;4.63;4.22;;;;;;;16.03;96.16;100325.69;6225133;23;20489;-83
2021/08/30 00:06:09;;;;;;;5.45;3.97;;;;;;;16.07;95.24;100329.81;6222792;23;20020;-81
2021/08/30 00:08:35;;;;;;;4.88;4.38;;;;;;;16.10;94.75;100334.09;6223588;23;20536;-80
2021/08/30 00:11:02;;;;;;;5.35;4.18;;;;;;;16.10;94.57;100326.06;6223714;23;20021;-82
2021/08/30 00:13:32;;;;;;;8.73;5.03;;;;;;;16.13;94.52;100325.88;6224429;23;20103;-82
2021/08/30 00:16:00;;;;;;;5.57;4.68;;;;;;;16.14;93.97;100327.56;6220432;23;20104;-82
2021/08/30 00:18:29;;;;;;;6.70;4.70;;;;;;;16.15;93.58;100323.94;6223222;23;20032;-82
2021/08/30 00:20:56;;;;;;;5.15;4.65;;;;;;;16.19;92.91;100325.44;6223919;23;20695;-82
2021/08/30 00:23:23;;;;;;;6.63;5.10;;;;;;;16.22;92.47;100319.84;6226234;23;20114;-82
2021/08/30 00:25:49;;;;;;;5.75;4.97;;;;;;;16.21;92.52;100322.66;6224209;23;20023;-81
2021/08/30 00:28:16;;;;;;;5.75;5.07;;;;;;;16.20;92.90;100316.47;6224467;23;20467;-82
2021/08/30 00:30:42;;;;;;;6.43;5.15;;;;;;;16.18;92.85;100326.41;6225400;23;20080;-82
2021/08/30 00:33:10;;;;;;;6.38;5.00;;;;;;;16.18;92.77;100326.41;6235899;23;20076;-83
2021/08/30 00:35:37;;;;;;;5.45;4.85;;;;;;;16.19;92.57;100338.78;6241678;23;20029;-82
2021/08/30 00:38:05;;;;;;;8.40;4.93;;;;;;;16.19;92.26;100330.78;6227675;23;20016;-83
2021/08/30 00:40:35;;;;;;;4.95;4.45;;;;;;;16.21;91.99;100323.53;6219912;23;20035;-83
2021/08/30 00:43:03;;;;;;;6.50;4.72;;;;;;;16.19;92.08;100320.09;6222410;23;20113;-83
2021/08/30 00:45:31;;;;;;;6.53;4.90;;;;;;;16.19;92.16;100328.13;6223585;23;20043;-83
2021/08/30 00:47:58;;;;;;;9.20;4.82;;;;;;;16.23;91.85;100329.56;6223588;23;20016;-83
2021/08/30 00:50:24;;;;;;;5.47;4.55;;;;;;;16.23;91.29;100326.91;6197310;23;20048;-82
2021/08/30 00:52:51;;;;;;;7.15;5.57;;;;;;;16.20;91.86;100321.81;6223867;23;20076;-83
2021/08/30 00:55:19;;;;;;;7.53;5.80;;;;;;;16.21;91.95;100320.00;6223384;23;20017;-83
2021/08/30 00:57:46;;;;;;;6.18;5.55;;;;;;;16.21;91.44;100312.84;6228107;23;20012;-82
2021/08/30 01:00:14;;;;;;;6.88;6.00;;;;;;;16.21;91.47;100322.66;6235640;23;20103;-82
2021/08/30 01:02:42;;;;;;;5.97;5.38;;;;;;;16.20;90.89;100315.59;6230474;23;20051;-80
2021/08/30 01:05:11;;;;;;;8.43;5.88;;;;;;;16.19;90.79;100329.94;6222509;23;20204;-83
2021/08/30 01:08:04;;;;;;;9.07;5.70;;;;;;;16.21;90.81;100326.19;6222507;23;20390;-83
2021/08/30 01:10:43;;;;;;;6.55;5.13;;;;;;;16.22;90.73;100325.19;6185922;23;20026;-83
2021/08/30 01:13:18;;;;;;;6.80;5.78;;;;;;;16.24;90.42;100331.28;6223205;23;20036;-82
2021/08/30 01:15:47;;;;;;;7.22;5.65;;;;;;;16.28;90.15;100322.09;6230814;23;20312;-82
2021/08/30 01:18:21;;;;;;;7.18;5.65;;;;;;;16.28;89.92;100324.78;6229792;23;20079;-83
2021/08/30 01:20:57;;;;;;;6.32;5.55;;;;;;;16.28;90.17;100330.13;6196498;23;20016;-83
2021/08/30 01:23:25;;;;;;;8.13;5.53;;;;;;;16.26;90.21;100329.38;6223385;23;20502;-83
2021/08/30 01:25:53;;;;;;;7.85;5.75;;;;;;;16.30;89.86;100320.19;6241445;23;20044;-83
2021/08/30 01:28:23;;;;;;;6.93;5.57;;;;;;;16.28;90.02;100323.91;6239925;23;20383;-81
2021/08/30 01:30:55;;;;;;;7.10;5.70;;;;;;;16.28;90.37;100332.78;6243144;23;20012;-82
2021/08/30 01:33:22;;;;;;;9.25;5.85;;;;;;;16.28;89.90;100330.13;6244655;23;20064;-82
2021/08/30 01:35:51;;;;;;;7.07;5.63;;;;;;;16.25;90.11;100330.31;6244710;23;20012;-83
2021/08/30 01:38:19;;;;;;;6.40;5.25;;;;;;;16.25;90.24;100332.16;6243181;23;20013;-83
2021/08/30 01:40:46;;;;;;;6.38;5.50;;;;;;;16.24;90.00;100320.59;6244399;23;20063;-82
2021/08/30 01:43:14;;;;;;;7.00;5.60;;;;;;;16.24;89.93;100325.94;6218380;23;20080;-83
2021/08/30 01:45:43;;;;;;;7.13;5.32;;;;;;;16.22;89.91;100325.19;6219563;23;20008;-82
2021/08/30 01:48:10;;;;;;;6.22;5.45;;;;;;;16.23;89.56;100310.88;6244375;23;20031;-83
2021/08/30 01:50:38;;;;;;;8.15;5.68;;;;;;;16.26;89.38;100325.84;6244300;23;20029;-83
2021/08/30 01:53:07;;;;;;;8.55;5.72;;;;;;;16.25;89.79;100324.13;6244141;23;20024;-82
2021/08/30 02:00:43;;;;;;;6.97;5.72;;;;;;;16.29;89.39;100321.13;6243863;23;20024;-83
2021/08/30 02:03:19;;;;;;;9.10;6.55;;;;;;;16.34;88.73;100323.50;6218355;23;20020;-83
2021/08/30 02:05:48;;;;;;;10.10;6.28;;;;;;;16.32;88.62;100314.72;6242561;23;20011;-83
2021/08/30 02:08:15;;;;;;;10.27;7.03;;;;;;;16.29;88.70;100313.13;6243413;23;20015;-82
2021/08/30 02:10:46;;;;;;;9.75;7.35;;;;;;;16.32;88.76;100312.91;6242470;23;20009;-82
2021/08/30 02:13:14;;;;;;;8.10;6.72;;;;;;;16.31;88.91;100315.69;6240497;23;20050;-82
2021/08/30 02:15:44;;;;;;;11.00;6.75;;;;;;;16.33;88.81;100322.63;6237387;23;20024;-83
2021/08/30 02:18:22;;;;;;;8.60;6.70;;;;;;;16.31;88.71;100321.03;6237264;23;20088;-83
2021/08/30 02:20:56;;;;;;;8.27;6.60;;;;;;;16.27;88.99;100323.06;6238880;23;20048;-83
2021/08/30 02:23:29;;;;;;;10.20;7.40;;;;;;;16.26;89.05;100324.03;6238831;23;20035;-82
2021/08/30 02:26:02;;;;;;;10.40;7.10;;;;;;;16.28;89.22;100321.25;6239094;23;20027;-82
2021/08/30 02:28:30;;;;;;;9.10;6.88;;;;;;;16.27;89.14;100322.19;6212469;23;20032;-82
2021/08/30 02:31:00;;;;;;;8.65;6.35;;;;;;;16.30;88.99;100322.84;6239817;23;20024;-82
2021/08/30 02:33:29;;;;;;;8.73;6.63;;;;;;;16.32;89.12;100328.94;6212786;23;20059;-82
2021/08/30 02:36:03;;;;;;;10.05;7.18;;;;;;;16.34;88.94;100323.50;6242421;23;20055;-81
2021/08/30 02:38:33;;;;;;;10.98;7.40;;;;;;;16.36;88.74;100316.22;6241605;23;20039;-81
2021/08/30 02:41:02;;;;;;;9.68;6.72;;;;;;;16.39;88.43;100322.16;6239793;23;20028;-82
2021/08/30 02:43:30;;;;;;;7.20;6.30;;;;;;;16.41;88.31;100330.94;6241259;23;20023;-82
2021/08/30 02:45:57;;;;;;;8.43;6.75;;;;;;;16.40;88.09;100326.56;6235511;23;20451;-82
2021/08/30 02:48:26;;;;;;;9.35;6.75;;;;;;;16.36;88.42;100321.56;6208463;23;20051;-82
2021/08/30 02:50:53;;;;;;;8.10;6.47;;;;;;;16.39;88.30;100324.84;6234604;23;20067;-82
2021/08/30 02:53:23;;;;;;;9.18;6.85;;;;;;;16.40;88.16;100323.88;6233973;23;20072;-83
2021/08/30 02:55:51;;;;;;;8.25;6.80;;;;;;;16.39;88.48;100324.00;6225295;23;20024;-83
2021/08/30 02:58:19;;;;;;;9.10;6.22;;;;;;;16.37;88.43;100332.13;6226762;23;20103;-83
2021/08/30 03:00:47;;;;;;;9.18;6.93;;;;;;;16.36;88.44;100329.59;6226111;23;20554;-83
2021/08/30 03:03:15;;;;;;;8.35;6.80;;;;;;;16.37;88.52;100324.09;6236260;23;20035;-82
2021/08/30 03:05:43;;;;;;;8.60;7.05;;;;;;;16.35;88.16;100323.38;6239966;23;20025;-82
2021/08/30 03:08:10;;;;;;;8.40;6.88;;;;;;;16.36;88.15;100325.09;6237672;23;20021;-82
2021/08/30 03:10:38;;;;;;;9.60;7.13;;;;;;;16.35;88.23;100326.06;6212999;23;20032;-83
2021/08/30 03:13:07;;;;;;;8.50;6.80;;;;;;;16.40;88.03;100328.38;6206106;23;20843;-81
2021/08/30 03:15:34;;;;;;;11.05;7.28;;;;;;;16.42;87.57;100327.31;6228036;23;20080;-81
2021/08/30 03:18:10;;;;;;;7.75;6.95;;;;;;;16.45;87.16;100327.09;6226799;23;20091;-81
2021/08/30 03:20:37;;;;;;;9.23;7.20;;;;;;;16.41;87.31;100324.75;6195393;23;20096;-82
2021/08/30 03:23:05;;;;;;;10.38;6.93;;;;;;;16.41;87.68;100319.38;6223929;23;20060;-81
2021/08/30 03:25:34;;;;;;;11.07;7.75;;;;;;;16.39;87.75;100322.16;6226354;23;20485;-83
2021/08/30 03:28:05;;;;;;;11.18;7.10;;;;;;;16.39;87.70;100324.00;6198936;23;20032;-83
2021/08/30 03:30:32;;;;;;;10.25;7.80;;;;;;;16.40;87.53;100323.88;6226690;23;20021;-81
2021/08/30 03:33:00;;;;;;;11.88;7.95;;;;;;;16.40;87.82;100331.03;6235792;23;20016;-82
2021/08/30 03:35:30;;;;;;;9.32;7.40;;;;;;;16.38;87.58;100332.97;6239908;23;20028;-81
2021/08/30 03:38:00;;;;;;;8.65;7.57;;;;;;;16.40;87.36;100339.91;6240676;23;20008;-82
2021/08/30 03:40:28;;;;;;;10.50;7.38;;;;;;;16.42;87.58;100337.13;6231909;23;20032;-83
2021/08/30 03:42:55;;;;;;;9.90;7.80;;;;;;;16.42;87.64;100340.66;6222060;23;20068;-82
2021/08/30 03:45:22;;;;;;;10.13;7.30;;;;;;;16.40;87.69;100334.56;6195880;23;20031;-83
2021/08/30 03:47:49;;;;;;;9.00;7.70;;;;;;;16.39;87.89;100338.22;6222750;23;20044;-82
2021/08/30 03:50:16;;;;;;;9.77;7.30;;;;;;;16.39;87.94;100343.56;6222639;23;20013;-82
2021/08/30 03:52:44;;;;;;;11.27;7.95;;;;;;;16.39;87.85;100334.69;6221133;23;20400;-83
2021/08/30 03:55:11;;;;;;;9.02;7.43;;;;;;;16.41;87.86;100338.97;6219324;23;20023;-82
2021/08/30 03:57:38;;;;;;;11.35;7.85;;;;;;;16.42;87.73;100338.00;6220806;23;20016;-82
2021/08/30 04:00:10;;;;;;;11.00;7.70;;;;;;;16.42;87.62;100338.00;6223480;23;20031;-82
2021/08/30 04:02:40;;;;;;;10.40;7.80;;;;;;;16.42;87.84;100348.69;6225143;23;20103;-82
2021/08/30 04:05:09;;;;;;;10.82;8.13;;;;;;;16.45;89.12;100345.78;6226832;23;20083;-83
2021/08/30 04:07:37;;;;;;;12.02;8.00;;;;;;;16.38;90.05;100352.53;6225353;23;20104;-83
2021/08/30 04:10:05;;;;;;;11.65;8.13;;;;;;;16.29;90.87;100345.19;6221930;23;20017;-83
2021/08/30 04:12:32;;;;;;;10.43;8.43;;;;;;;16.21;91.70;100350.22;6230153;23;20023;-83
2021/08/30 04:14:59;;;;;;;10.55;8.27;;;;;;;16.14;92.63;100351.63;6224802;23;20737;-83
2021/08/30 04:17:26;;;;;;;10.27;8.60;;;;;;;16.09;93.09;100346.59;6219405;23;20013;-83
2021/08/30 04:19:54;;;;;;;10.07;8.77;;;;;;;16.02;93.85;100344.47;6227829;23;20046;-82
2021/08/30 04:22:21;;;;;;;11.52;8.45;;;;;;;16.01;94.12;100343.63;6224478;23;20064;-83
2021/08/30 04:24:47;;;;;;;10.85;8.52;;;;;;;15.99;94.42;100339.34;6223366;23;20036;-82
2021/08/30 04:27:14;;;;;;;10.48;8.00;;;;;;;15.96;94.95;100348.41;6221350;23;20027;-81
2021/08/30 04:29:44;;;;;;;11.52;8.43;;;;;;;15.96;95.07;100336.88;6220502;23;20028;-82
2021/08/30 04:32:12;;;;;;;9.10;8.02;;;;;;;15.94;94.77;100345.00;6224469;22;20020;-82
2021/08/30 04:34:41;;;;;;;11.63;8.07;;;;;;;15.94;95.08;100345.00;6221991;23;20081;-82
2021/08/30 04:37:08;;;;;;;10.70;7.97;;;;;;;15.97;95.16;100349.28;6221298;23;20092;-83
2021/08/30 04:39:35;;;;;;;9.63;7.90;;;;;;;15.99;94.51;100348.22;6223330;23;20021;-83
2021/08/30 04:42:03;;;;;;;9.38;7.57;;;;;;;16.02;94.24;100355.16;6221303;23;20023;-83
2021/08/30 04:44:31;;;;;;;9.35;7.68;;;;;;;16.05;93.65;100355.81;6222812;23;20068;-82
2021/08/30 04:47:00;;;;;;;9.82;7.72;;;;;;;16.06;93.31;100356.63;6223676;23;20088;-82
2021/08/30 04:49:27;;;;;;;10.18;8.13;;;;;;;16.07;93.16;100353.00;6224242;23;20052;-82
2021/08/30 04:51:54;;;;;;;8.38;7.30;;;;;;;16.11;92.74;100359.84;6196309;23;20082;-83
2021/08/30 04:54:21;;;;;;;10.50;7.60;;;;;;;16.18;92.05;100361.13;6224750;23;20096;-82
2021/08/30 04:56:50;;;;;;;9.25;7.82;;;;;;;16.21;91.39;100360.91;6223637;23;20036;-82
2021/08/30 04:59:17;;;;;;;9.05;7.22;;;;;;;16.24;91.10;100360.69;6223510;23;20076;-84
2021/08/30 05:01:43;;;;;;;8.73;7.38;;;;;;;16.30;90.48;100359.41;6226714;23;20024;-81
2021/08/30 05:04:12;;;;;;;9.90;7.13;;;;;;;16.34;89.75;100352.88;6226368;23;20020;-82
2021/08/30 05:06:39;;;;;;;8.68;7.22;;;;;;;16.38;89.19;100357.88;6224092;23;20461;-82
2021/08/30 05:09:06;;;;;;;8.80;7.35;;;;;;;16.41;89.18;100360.34;6223870;23;20111;-82
2021/08/30 05:11:36;;;;;;;10.13;7.47;;;;;;;16.45;89.04;100358.31;6197434;23;20095;-82
2021/08/30 05:14:03;;;;;;;;;;;;;;;16.47;88.39;100369.75;6229995;23;20052;-80
2021/08/30 05:16:30;;;;;;;9.80;7.55;;;;;;;16.51;88.40;100370.38;6239735;23;19930;-82
2021/08/30 05:18:59;;;;;;;8.50;7.38;;;;;;;16.53;88.11;100368.47;6240912;23;20721;-80
2021/08/30 05:21:26;;;;;;;10.23;7.78;;;;;;;16.55;87.80;100371.84;6240758;23;20036;-80
2021/08/30 05:23:53;;;;;;;9.23;7.95;;;;;;;16.56;87.94;100379.75;6234036;23;20474;-79
2021/08/30 05:26:21;;;;;;;11.30;8.05;;;;;;;16.55;87.85;100383.41;6232165;23;20099;-81
2021/08/30 05:28:48;;;;;;;11.68;8.45;;;;;;;16.62;87.14;100373.97;6206261;23;20027;-82
2021/08/30 05:31:15;;;;;;;9.70;7.50;;;;;;;16.65;86.64;100384.50;6226949;23;20409;-84
2021/08/30 05:33:43;;;;;;;11.98;8.00;;;;;;;16.63;87.13;100386.41;6225391;23;20047;-82
2021/08/30 05:36:09;;;;;;;10.48;7.50;;;;;;;16.61;87.48;100382.13;6198622;23;20027;-83
2021/08/30 05:38:36;;;;;;;12.57;7.93;;;;;;;16.61;87.91;100384.78;6226487;23;20059;-82
2021/08/30 05:41:03;;;;;;;13.73;8.90;;;;;;;16.60;87.48;100383.94;6223932;23;20082;-82
2021/08/30 05:43:30;;;;;;;11.13;8.25;;;;;;;16.61;87.34;100382.13;6225342;23;20071;-82
2021/08/30 05:45:56;;;;;;;10.90;8.63;;;;;;;16.65;86.99;100391.66;6224636;23;20036;-81
2021/08/30 05:48:23;;;;;;;10.93;8.50;;;;;;;16.65;86.72;100387.16;6223742;23;20020;-81
2021/08/30 05:50:50;;;;;;;11.10;8.32;;;;;;;16.65;86.85;100387.16;6224867;23;20040;-80
2021/08/30 05:53:19;;;;;;;10.68;8.00;;;;;;;16.66;86.83;100385.34;6225971;23;20025;-83
2021/08/30 05:55:46;;;;;;;9.93;8.23;;;;;;;16.67;86.68;100390.59;6225018;23;20016;-80
2021/08/30 05:58:13;;;;;;;11.90;8.38;;;;;;;16.71;86.71;100396.53;6222076;23;20477;-82
2021/08/30 06:00:41;;;;;;;9.90;8.52;;;;;;;16.71;86.65;100396.53;6222002;23;20099;-83
2021/08/30 06:03:11;;;;;;;12.32;8.45;;;;;;;16.73;86.73;100394.63;6225019;23;20024;-82
2021/08/30 06:05:38;;;;;;;11.68;9.00;;;;;;;16.76;86.60;100389.91;6222634;23;20082;-82
2021/08/30 06:08:05;;;;;;;11.93;8.82;;;;;;;16.80;86.33;100396.75;6222816;23;20028;-82
2021/08/30 06:10:33;;;;;;;13.05;8.30;;;;;;;16.81;86.15;100397.59;6223019;23;20055;-82
2021/08/30 06:13:00;;;;;;;10.27;8.43;;;;;;;16.83;85.94;100393.00;6224012;23;20120;-82
2021/08/30 06:15:27;;;;;;;12.63;8.18;;;;;;;16.83;86.17;100391.19;6223285;23;20446;-82
2021/08/30 06:17:55;;;;;;;12.68;8.80;;;;;;;16.88;85.29;100393.50;6224102;23;20044;-82
2021/08/30 06:20:22;;;;;;;9.55;8.25;;;;;;;16.89;85.34;100394.34;6222118;23;20064;-82
2021/08/30 06:22:49;;;;;;;11.80;8.60;;;;;;;16.92;85.27;100399.50;6223423;23;20016;-82
2021/08/30 06:25:16;;;;;;;10.60;8.50;;;;;;;17.00;84.50;100397.13;6222297;23;20021;-82
2021/08/30 06:27:55;;;;;;;13.07;8.87;;;;;;;17.00;84.10;100387.25;6199380;23;20032;-81
2021/08/30 06:30:22;;;;;;;11.63;8.35;;;;;;;17.03;84.13;100403.09;6195410;23;20107;-81
2021/08/30 06:32:49;;;;;;;9.02;7.85;;;;;;;17.08;83.39;100398.25;6221326;23;20100;-81
2021/08/30 06:35:16;;;;;;;11.75;8.48;;;;;;;17.10;83.25;100403.50;6222418;23;20028;-83
2021/08/30 06:37:43;;;;;;;11.75;8.73;;;;;;;17.11;83.44;100403.38;6223705;23;20056;-82
2021/08/30 06:40:11;;;;;;;11.30;8.55;;;;;;;17.13;82.60;100398.78;6196737;23;20044;-82
2021/08/30 06:42:38;;;;;;;11.80;8.60;;;;;;;17.13;82.66;100404.13;6234721;23;20016;-80
2021/08/30 06:45:05;;;;;;;11.23;8.95;;;;;;;17.13;82.76;100404.13;6240666;23;20015;-82
2021/08/30 06:47:32;;;;;;;12.23;8.88;;;;;;;17.17;81.60;100404.72;6198291;23;20055;-83
2021/08/30 06:50:00;;;;;;;11.80;8.63;;;;;;;17.14;82.25;100408.50;6231064;23;20056;-82
2021/08/30 06:52:27;;;;;;;11.77;9.20;;;;;;;17.13;82.11;100412.16;6239915;23;20017;-81
2021/08/30 06:54:54;;;;;;;11.95;8.98;;;;;;;17.14;81.96;100410.34;6210952;23;20039;-80
2021/08/30 06:57:20;;;;;;;12.35;9.20;;;;;;;17.14;82.00;100403.16;6236554;23;20040;-82
2021/08/30 06:59:47;;;;;;;11.68;8.65;;;;;;;17.16;82.52;100403.88;6233240;23;20029;-81
2021/08/30 07:02:14;;;;;;;10.50;8.52;;;;;;;17.22;82.67;100407.94;6197656;23;20099;-82
2021/08/30 07:04:41;;;;;;;14.00;8.55;;;;;;;17.24;82.08;100408.69;6223888;23;20055;-83
2021/08/30 07:07:07;;;;;;;15.65;9.20;;;;;;;17.28;82.58;100412.00;6222896;23;20020;-83
2021/08/30 07:09:34;;;;;;;11.05;8.85;;;;;;;17.28;82.10;100418.19;6223016;23;20016;-81
2021/08/30 07:12:01;;;;;;;12.68;9.13;;;;;;;17.29;82.19;100421.72;6223695;23;20024;-82
2021/08/30 07:14:28;;;;;;;12.15;9.57;;;;;;;17.33;81.97;100420.50;6223182;23;20023;-82
2021/08/30 07:16:54;;;;;;;9.30;8.05;;;;;;;17.31;81.34;100420.66;6223626;23;20044;-80
2021/08/30 07:19:21;;;;;;;12.70;8.85;;;;;;;17.29;82.08;100413.69;6224058;23;20048;-80
2021/08/30 07:21:48;;;;;;;10.40;8.98;;;;;;;17.34;81.36;100422.22;6225828;23;20059;-80
2021/08/30 07:24:15;;;;;;;9.77;8.73;;;;;;;17.36;81.17;100420.28;6233335;23;20055;-80
2021/08/30 07:26:41;;;;;;;11.30;8.93;;;;;;;17.45;79.98;100423.16;6239762;23;20020;-80
2021/08/30 07:29:08;;;;;;;13.75;8.80;;;;;;;17.50;80.21;100417.41;6213587;23;20095;-81
2021/08/30 07:31:38;;;;;;;12.15;9.35;;;;;;;17.60;80.31;100420.28;6229177;23;20020;-81
2021/08/30 07:34:04;;;;;;;11.60;8.73;;;;;;;17.71;79.57;100423.03;6226394;23;20043;-81
2021/08/30 07:36:32;;;;;;;12.70;9.63;;;;;;;17.78;78.34;100413.56;6223395;23;20371;-82
2021/08/30 07:39:03;;;;;;;11.65;9.05;;;;;;;17.86;78.21;100422.69;6225492;23;20028;-82
2021/08/30 07:41:31;;;;;;;11.38;8.43;;;;;;;17.89;78.65;100416.25;6227126;23;20063;-82
2021/08/30 07:43:59;;;;;;;12.30;9.10;;;;;;;17.95;78.12;100420.28;6228640;23;20051;-82
2021/08/30 07:46:28;;;;;;;12.90;9.25;;;;;;;18.05;78.52;100427.50;6227245;23;20095;-82
2021/08/30 07:48:55;;;;;;;12.90;8.95;;;;;;;18.18;77.70;100433.63;6228952;23;20039;-83
2021/08/30 07:51:22;;;;;;;10.93;8.63;;;;;;;18.24;76.66;100440.34;6243436;23;20001;-82
2021/08/30 07:53:51;;;;;;;10.73;8.77;;;;;;;18.30;75.71;100442.50;6243397;23;20056;-82
2021/08/30 07:56:19;;;;;;;11.43;8.45;;;;;;;18.29;75.27;100443.47;6228178;23;20023;-81
2021/08/30 07:58:45;;;;;;;10.15;8.52;;;;;;;18.31;75.51;100449.59;6199635;23;20036;-81
2021/08/30 08:01:13;;;;;;;11.38;8.40;;;;;;;18.33;75.46;100454.81;6228995;23;20100;-82
2021/08/30 08:03:40;;;;;;;11.05;8.80;;;;;;;18.30;75.44;100455.91;6203546;23;20027;-80
2021/08/30 08:06:07;;;;;;;12.48;8.85;;;;;;;18.23;74.88;100457.38;6230292;23;20024;-82
2021/08/30 08:08:34;;;;;;;11.10;8.60;;;;;;;18.15;75.91;100455.28;6231158;23;20051;-82
2021/08/30 08:11:02;;;;;;;11.65;9.13;;;;;;;18.12;76.30;100457.34;6206871;23;20021;-82
2021/08/30 08:13:29;;;;;;;10.75;8.55;;;;;;;18.10;76.82;100453.94;6240483;23;20060;-80
2021/08/30 08:16:00;;;;;;;11.57;8.15;;;;;;;18.15;76.67;100465.16;6236980;23;20047;-81
2021/08/30 08:18:28;;;;;;;14.23;9.00;;;;;;;18.22;76.72;100458.34;6232394;23;20069;-81
2021/08/30 08:20:55;;;;;;;13.13;9.70;;;;;;;18.30;76.93;100463.09;6240511;23;20020;-80
2021/08/30 08:23:21;;;;;;;13.25;9.15;;;;;;;18.35;77.05;100467.16;6213938;23;20096;-83
2021/08/30 08:25:48;;;;;;;14.50;9.43;;;;;;;18.42;76.70;100463.00;6241490;23;20020;-82
2021/08/30 08:28:14;;;;;;;12.45;9.07;;;;;;;18.52;75.41;100464.00;6228431;23;20056;-82
2021/08/30 08:30:41;;;;;;;12.38;8.93;;;;;;;18.68;74.99;100468.19;6204754;23;20065;-81
2021/08/30 08:33:08;;;;;;;12.57;9.55;;;;;;;18.89;74.80;100471.81;6229879;22;20035;-82
2021/08/30 08:35:40;;;;;;;13.95;8.50;;;;;;;19.11;71.72;100473.63;6233128;23;20789;-82
2021/08/30 08:38:11;;;;;;;14.95;8.52;;;;;;;19.21;72.56;100470.06;6231167;23;20107;-82
2021/08/30 08:40:38;;;;;;;13.88;9.27;;;;;;;19.42;72.23;100470.13;6238862;23;20084;-81
2021/08/30 08:43:13;;;;;;;10.02;8.02;;;;;;;19.51;71.19;100474.78;6239520;23;20026;-83
2021/08/30 08:45:46;;;;;;;11.65;8.32;;;;;;;19.54;70.59;100479.03;6232322;23;20071;-83
2021/08/30 08:48:14;;;;;;;10.43;8.57;;;;;;;19.46;69.67;100478.81;6223538;23;20021;-83
2021/08/30 08:50:44;;;;;;;11.15;8.25;;;;;;;19.35;69.99;100471.63;6223637;23;20028;-82
2021/08/30 08:53:11;;;;;;;16.80;12.27;;;;;;;19.35;70.74;100478.84;6222722;23;20103;-84
2021/08/30 08:55:38;;;;;;;13.27;8.80;;;;;;;19.40;71.52;100479.28;6224280;23;20612;-83
2021/08/30 08:58:12;;;;;;;11.18;8.50;;;;;;;19.40;70.34;100476.59;6224347;23;20835;-82
2021/08/30 09:00:41;;;;;;;11.32;8.63;;;;;;;19.40;70.79;100481.97;6224440;23;20051;-82
2021/08/30 09:03:15;;;;;;;;;;;;;;;19.43;70.97;100489.78;6224451;23;20047;-82
2021/08/30 09:05:43;;;;;;;10.98;8.70;;;;;;;19.42;69.96;100485.41;6223699;23;19926;-83
2021/08/30 09:08:30;;;;;;;10.70;8.32;;;;;;;19.38;70.52;100483.94;6223695;23;20087;-82
2021/08/30 09:10:59;;;;;;;11.98;8.63;;;;;;;19.42;69.98;100482.72;6198211;23;20095;-81
2021/08/30 09:13:32;;;;;;;12.30;8.43;;;;;;;19.50;70.49;100486.53;6200078;23;20040;-81
2021/08/30 09:15:59;;;;;;;11.82;8.05;;;;;;;19.61;68.74;100480.25;6229625;23;20051;-82
2021/08/30 09:18:30;;;;;;;11.88;8.15;;;;;;;19.71;68.32;100475.81;6230838;23;20673;-82
2021/08/30 09:21:09;;;;;;;11.25;8.00;;;;;;;19.77;68.31;100488.72;6196448;23;20044;-82
2021/08/30 09:23:40;;;;;;;11.90;8.43;;;;;;;19.88;68.36;100491.38;6223299;23;20020;-82
2021/08/30 09:26:14;;;;;;;10.20;8.13;;;;;;;19.93;68.70;100483.78;6225512;23;20055;-82
2021/08/30 09:28:48;;;;;;;10.55;8.50;;;;;;;19.94;68.23;100481.94;6228312;23;20055;-82
2021/08/30 09:31:15;;;;;;;11.95;8.50;;;;;;;19.82;68.27;100483.84;6225979;23;20068;-82
2021/08/30 09:33:50;;;;;;;11.85;8.80;;;;;;;19.63;69.03;100491.72;6222809;23;20030;-82
2021/08/30 09:36:17;;;;;;;14.73;9.00;;;;;;;19.47;70.04;100484.06;6223149;23;20031;-82
2021/08/30 09:38:50;;;;;;;11.95;8.55;;;;;;;19.33;70.19;100473.59;6224771;23;20023;-83
2021/08/30 09:41:19;;;;;;;11.10;8.63;;;;;;;19.33;70.36;100488.84;6232023;23;20039;-82
2021/08/30 09:44:03;;;;;;;9.23;8.23;;;;;;;19.26;69.92;100488.47;6224847;23;20512;-82
2021/08/30 09:46:31;;;;;;;10.43;8.38;;;;;;;19.15;70.75;100481.31;6222968;23;20020;-82
2021/08/30 09:49:05;;;;;;;15.23;8.52;;;;;;;19.05;70.55;100485.69;6221984;23;20052;-82
2021/08/30 09:51:40;;;;;;;10.82;8.48;;;;;;;19.01;69.83;100484.25;6224667;23;20013;-82
2021/08/30 09:54:07;;;;;;;9.30;8.35;;;;;;;19.05;70.62;100490.22;6220262;23;20076;-83
2021/08/30 09:56:37;;;;;;;10.93;8.68;;;;;;;19.03;69.30;100476.94;6221283;23;20017;-82
2021/08/30 09:59:06;;;;;;;11.30;8.48;;;;;;;19.17;68.83;100484.72;6222001;23;20103;-82
2021/08/30 10:01:37;;;;;;;14.23;8.45;;;;;;;19.33;68.42;100480.78;6221906;23;20434;-82
2021/08/30 10:04:07;;;;;;;9.95;8.13;;;;;;;19.43;66.68;100482.59;6222146;23;20716;-83
2021/08/30 10:06:39;;;;;;;11.73;8.40;;;;;;;19.41;66.52;100481.84;6222286;23;20093;-82
2021/08/30 10:09:12;;;;;;;10.52;8.10;;;;;;;19.27;66.88;100491.03;6224247;23;20028;-82
2021/08/30 10:11:40;;;;;;;10.77;8.48;;;;;;;19.07;68.45;100489.13;6226037;23;20019;-82
2021/08/30 10:14:11;;;;;;;12.30;8.80;;;;;;;19.03;69.05;100489.50;6223574;23;20108;-82
2021/08/30 10:16:41;;;;;;;10.18;8.40;;;;;;;18.99;69.44;100496.94;6223296;23;20028;-82
2021/08/30 10:19:10;;;;;;;10.48;8.13;;;;;;;19.06;69.09;100495.47;6221669;23;20023;-83
2021/08/30 10:21:46;;;;;;;10.15;8.23;;;;;;;19.05;69.66;100487.53;6223185;23;20080;-81
2021/08/30 10:24:17;;;;;;;10.65;8.95;;;;;;;19.15;68.86;100483.16;6227088;23;20079;-81
2021/08/30 10:26:48;;;;;;;12.32;8.48;;;;;;;19.28;68.02;100484.69;6198345;23;20390;-81
2021/08/30 10:29:16;;;;;;;9.00;7.95;;;;;;;19.38;68.48;100484.78;6225405;23;20050;-81
2021/08/30 10:31:49;;;;;;;9.65;8.13;;;;;;;19.40;67.64;100495.41;6230842;23;20024;-82
2021/08/30 10:34:29;;;;;;;12.73;7.85;;;;;;;19.45;68.19;100493.22;6226756;23;20120;-82
2021/08/30 10:36:57;;;;;;;9.23;7.93;;;;;;;19.49;67.55;100494.66;6222517;23;20028;-81
2021/08/30 10:39:47;;;;;;;9.13;7.82;;;;;;;19.58;67.24;100502.00;6222162;23;20040;-82
2021/08/30 10:42:16;;;;;;;10.30;7.72;;;;;;;19.70;66.74;100495.59;6221039;23;20024;-82
2021/08/30 10:44:53;;;;;;;10.27;7.80;;;;;;;19.86;66.09;100496.00;6196290;23;20024;-82
2021/08/30 10:47:33;;;;;;;10.82;8.00;;;;;;;20.11;65.31;100497.50;6224675;23;20417;-81
2021/08/30 10:50:01;;;;;;;12.02;7.53;;;;;;;20.37;65.06;100491.75;6240367;23;20035;-80
2021/08/30 10:52:39;;;;;;;9.77;7.38;;;;;;;20.47;63.88;100488.13;6240801;23;20013;-82
2021/08/30 10:55:19;;;;;;;9.70;7.80;;;;;;;20.60;62.48;100506.75;6238742;23;20005;-83
2021/08/30 10:57:51;;;;;;;9.60;8.20;;;;;;;20.62;62.32;100497.53;6208289;23;20035;-81
2021/08/30 11:00:31;;;;;;;10.35;7.53;;;;;;;20.52;61.97;100493.97;6239132;23;20059;-80
2021/08/30 11:02:59;;;;;;;9.80;7.15;;;;;;;20.37;62.54;100506.03;6201540;23;20072;-83
2021/08/30 11:05:30;;;;;;;12.63;7.72;;;;;;;20.39;62.37;100498.69;6198241;23;20024;-82
2021/08/30 11:07:58;;;;;;;8.82;7.40;;;;;;;20.36;62.86;100495.38;6195763;23;20104;-82
2021/08/30 11:10:28;;;;;;;11.32;7.80;;;;;;;20.47;62.65;100493.50;6230246;23;20051;-82
2021/08/30 11:12:56;;;;;;;13.35;7.85;;;;;;;20.56;62.46;100492.72;6232719;23;20077;-82
2021/08/30 11:15:35;;;;;;;10.60;7.82;;;;;;;20.52;62.60;100495.78;6240464;23;20004;-81
2021/08/30 11:18:04;;;;;;;9.90;7.38;;;;;;;20.39;61.97;100490.63;6240676;23;20074;-82
2021/08/30 11:20:33;;;;;;;9.30;7.03;;;;;;;20.13;63.39;100508.13;6233815;23;20021;-81
2021/08/30 11:23:00;;;;;;;9.32;7.60;;;;;;;19.99;63.90;100511.94;6226946;23;20016;-82
2021/08/30 11:25:35;;;;;;;9.55;7.60;;;;;;;19.86;64.21;100504.06;6222603;23;20127;-80
2021/08/30 11:28:14;;;;;;;9.73;7.35;;;;;;;19.76;64.01;100508.53;6198256;23;20103;-81
2021/08/30 11:30:41;;;;;;;9.55;7.57;;;;;;;19.73;64.68;100508.78;6228080;23;20020;-82
2021/08/30 11:33:11;;;;;;;8.98;7.70;;;;;;;19.75;65.53;100517.56;6227588;23;20076;-82
2021/08/30 11:35:38;;;;;;;7.50;6.53;;;;;;;19.80;64.68;100512.66;6222449;23;20080;-82